Time;durP1;ratioP1;P1;durP2;ratioP2;P2;SDS_P1;SDS_P2;PMS_P1;PMS_P2;Temp;Humidity;BMP_temperature;BMP_pressure;BME280_temperature;BME280_humidity;BME280_pressure;Samples;Min_cycle;Max_cycle;Signal;HPM_P1;HPM_P2
2021/03/18 00:01:54;;;;;;;10.57;4.78;;;2.20;99.90;;;;;;10320434;28;20054;-76
2021/03/18 00:06:56;;;;;;;12.30;5.97;;;2.10;99.90;;;;;;10319764;28;20050;-75
2021/03/18 00:11:57;;;;;;;13.32;5.63;;;2.00;99.90;;;;;;10320757;28;20050;-76
2021/03/18 00:16:59;;;;;;;9.85;5.57;;;1.90;99.90;;;;;;10319552;28;20058;-75
2021/03/18 00:22:01;;;;;;;10.48;5.50;;;1.80;99.90;;;;;;10319320;28;20414;-76
2021/03/18 00:27:03;;;;;;;13.07;6.00;;;1.70;99.90;;;;;;10322304;28;20113;-75
2021/03/18 00:32:04;;;;;;;11.30;5.70;;;1.70;99.90;;;;;;10327828;28;20082;-76
2021/03/18 00:37:06;;;;;;;10.60;5.55;;;1.60;99.90;;;;;;10326562;28;20050;-75
2021/03/18 00:42:07;;;;;;;10.48;5.65;;;1.50;99.90;;;;;;10326885;28;20058;-75
2021/03/18 00:47:09;;;;;;;9.48;5.05;;;1.50;99.90;;;;;;10327297;28;20046;-75
2021/03/18 00:52:11;;;;;;;9.20;5.03;;;1.40;99.90;;;;;;10327219;28;20046;-76
2021/03/18 00:57:13;;;;;;;13.07;5.93;;;1.40;99.90;;;;;;10327481;28;20054;-75
2021/03/18 01:02:16;;;;;;;11.18;6.10;;;1.30;99.90;;;;;;10327168;28;20058;-76
2021/03/18 01:07:17;;;;;;;16.27;7.95;;;1.20;99.90;;;;;;10327407;28;20061;-75
2021/03/18 01:12:19;;;;;;;10.48;5.45;;;1.20;99.90;;;;;;10325561;28;20042;-76
2021/03/18 01:17:20;;;;;;;10.20;5.13;;;1.30;99.90;;;;;;10326615;28;20054;-75
2021/03/18 01:22:22;;;;;;;8.88;5.13;;;1.20;99.90;;;;;;10325428;28;20051;-75
2021/03/18 01:27:23;;;;;;;11.15;5.40;;;1.10;99.90;;;;;;10326205;28;20132;-75
2021/03/18 01:32:25;;;;;;;12.70;6.05;;;1.10;99.90;;;;;;10325589;28;20046;-75
2021/03/18 01:37:27;;;;;;;12.15;6.05;;;1.10;99.90;;;;;;10324464;28;20054;-75
2021/03/18 01:42:28;;;;;;;10.85;5.78;;;1.10;99.90;;;;;;10325409;28;20046;-75
2021/03/18 01:47:30;;;;;;;10.00;5.85;;;0.90;99.90;;;;;;10325568;28;20050;-75
2021/03/18 01:52:32;;;;;;;19.42;7.93;;;0.90;99.90;;;;;;10324652;28;20133;-75
2021/03/18 01:57:34;;;;;;;13.95;5.93;;;0.90;99.90;;;;;;10325037;28;20077;-74
2021/03/18 02:02:37;;;;;;;10.07;5.90;;;0.80;99.90;;;;;;10324464;28;20137;-75
2021/03/18 02:07:39;;;;;;;20.83;8.98;;;0.60;99.90;;;;;;10324647;28;20051;-75
2021/03/18 02:12:41;;;;;;;18.30;7.93;;;0.60;99.90;;;;;;10324380;28;20058;-74
2021/03/18 02:17:59;;;;;;;13.93;5.95;;;0.50;99.90;;;;;;10323735;28;20121;-76
2021/03/18 02:23:44;;;;;;;11.07;5.50;;;0.60;99.90;;;;;;10322930;28;20575;-74
2021/03/18 02:29:01;;;;;;;12.38;5.85;;;0.50;99.90;;;;;;10323631;28;20384;-75
2021/03/18 02:34:44;;;;;;;16.17;7.85;;;0.60;99.90;;;;;;10284330;28;20058;-75
2021/03/18 02:39:52;;;;;;;13.88;6.32;;;0.50;99.90;;;;;;10322052;28;20062;-75
2021/03/18 02:44:56;;;;;;;13.93;5.90;;;0.50;99.90;;;;;;10323242;28;20553;-74
2021/03/18 02:50:00;;;;;;;12.52;6.15;;;0.60;99.90;;;;;;10322315;28;20054;-75
2021/03/18 02:55:06;;;;;;;13.43;6.43;;;0.70;99.90;;;;;;10323233;28;20549;-75
2021/03/18 03:00:10;;;;;;;12.65;6.28;;;0.70;99.90;;;;;;10321989;28;20050;-75
2021/03/18 03:05:14;;;;;;;9.85;5.80;;;0.80;99.90;;;;;;10330994;28;20050;-75
2021/03/18 03:10:22;;;;;;;11.68;6.20;;;0.80;99.90;;;;;;10331171;28;20053;-75
2021/03/18 03:15:27;;;;;;;12.98;6.65;;;0.90;99.90;;;;;;10330915;28;20058;-75
2021/03/18 03:20:29;;;;;;;10.85;5.85;;;0.90;99.90;;;;;;10329170;28;20050;-75
2021/03/18 03:25:33;;;;;;;13.48;6.70;;;1.00;99.90;;;;;;10329773;28;20055;-75
2021/03/18 03:30:34;;;;;;;12.68;6.10;;;1.10;99.90;;;;;;10330201;28;20093;-74
2021/03/18 03:35:37;;;;;;;15.88;6.80;;;1.20;99.90;;;;;;10328915;28;20054;-75
2021/03/18 03:40:39;;;;;;;30.20;18.80;;;1.30;99.90;;;;;;10329786;28;20096;-75
2021/03/18 03:45:41;;;;;;;30.38;16.67;;;1.20;99.90;;;;;;10329963;28;20054;-74
2021/03/18 03:50:43;;;;;;;13.85;7.13;;;1.00;99.90;;;;;;10329959;28;20053;-75
2021/03/18 03:56:02;;;;;;;14.65;8.30;;;1.10;99.90;;;;;;10329303;28;20470;-74
2021/03/18 04:01:09;;;;;;;14.95;6.90;;;1.00;99.90;;;;;;10330780;28;20054;-75
2021/03/18 04:06:11;;;;;;;12.95;7.25;;;1.10;99.90;;;;;;10331771;28;20431;-74
2021/03/18 04:11:14;;;;;;;12.38;6.97;;;1.30;99.90;;;;;;10331432;28;20046;-75
2021/03/18 04:16:16;;;;;;;14.43;8.00;;;1.30;99.90;;;;;;10329313;28;20046;-75
2021/03/18 04:21:20;;;;;;;13.10;7.18;;;1.40;99.90;;;;;;10329833;28;20050;-75
2021/03/18 04:26:22;;;;;;;12.40;7.38;;;1.50;99.90;;;;;;10329366;28;20054;-75
2021/03/18 04:31:23;;;;;;;10.77;7.43;;;1.50;99.90;;;;;;10329532;28;20100;-75
2021/03/18 04:36:25;;;;;;;11.23;7.30;;;1.20;99.90;;;;;;10329426;28;20085;-74
2021/03/18 04:41:28;;;;;;;13.93;7.45;;;1.00;99.90;;;;;;10329755;28;20058;-75
2021/03/18 04:46:31;;;;;;;12.55;7.22;;;1.00;99.90;;;;;;10328668;28;20671;-75
2021/03/18 04:51:32;;;;;;;16.73;8.65;;;1.20;99.90;;;;;;10326563;28;20136;-75
2021/03/18 04:56:35;;;;;;;12.93;8.07;;;1.20;99.90;;;;;;10328494;28;20046;-75
2021/03/18 05:01:36;;;;;;;11.43;7.50;;;1.20;99.90;;;;;;10327849;28;20065;-75
2021/03/18 05:06:40;;;;;;;11.02;7.20;;;1.20;99.90;;;;;;10328260;28;20067;-74
2021/03/18 05:11:42;;;;;;;14.90;8.30;;;1.20;99.90;;;;;;10327254;28;20117;-75
2021/03/18 05:16:45;;;;;;;14.80;9.05;;;1.20;99.90;;;;;;10327685;28;20054;-75
2021/03/18 05:21:48;;;;;;;16.80;9.95;;;1.20;99.90;;;;;;10327364;28;20409;-75
2021/03/18 05:26:49;;;;;;;22.67;13.52;;;1.20;99.90;;;;;;10326407;28;20061;-75
2021/03/18 05:31:51;;;;;;;16.27;11.43;;;1.20;99.90;;;;;;10327088;28;20053;-74
2021/03/18 05:36:53;;;;;;;17.48;9.90;;;1.20;99.90;;;;;;10326928;28;20121;-75
2021/03/18 05:41:55;;;;;;;14.32;9.25;;;1.20;99.90;;;;;;10326542;28;20097;-73
2021/03/18 05:46:58;;;;;;;18.20;9.43;;;1.20;99.90;;;;;;10326519;28;20054;-75
2021/03/18 05:52:02;;;;;;;17.00;9.40;;;1.20;99.90;;;;;;10326033;28;20049;-74
2021/03/18 05:57:04;;;;;;;18.30;9.65;;;1.20;99.90;;;;;;10325453;28;20058;-75
2021/03/18 06:02:06;;;;;;;19.52;9.43;;;1.20;99.90;;;;;;10326060;28;20070;-75
2021/03/18 06:07:08;;;;;;;14.75;9.25;;;1.30;99.90;;;;;;10324241;28;20096;-75
2021/03/18 06:12:10;;;;;;;15.70;9.43;;;1.50;99.90;;;;;;10325077;28;20093;-75
2021/03/18 06:17:12;;;;;;;14.32;9.60;;;1.60;99.90;;;;;;10308298;28;20116;-74
2021/03/18 06:22:14;;;;;;;21.98;10.48;;;1.70;99.90;;;;;;10325020;28;20043;-75
2021/03/18 06:27:22;;;;;;;19.13;9.80;;;1.70;99.90;;;;;;10324404;28;20058;-75
2021/03/18 06:32:25;;;;;;;16.48;9.55;;;1.90;99.90;;;;;;10324863;28;20259;-75
2021/03/18 06:37:43;;;;;;;15.13;9.55;;;2.00;99.90;;;;;;10323845;28;20128;-75
2021/03/18 06:43:01;;;;;;;17.73;11.07;;;2.20;99.90;;;;;;10324559;28;20410;-75
2021/03/18 06:48:10;;;;;;;20.58;11.90;;;2.40;99.90;;;;;;10323845;28;20042;-75
2021/03/18 06:53:18;;;;;;;18.05;11.70;;;2.60;99.90;;;;;;10323415;28;20054;-75
2021/03/18 06:58:25;;;;;;;18.95;11.98;;;2.70;99.90;;;;;;10324306;28;20129;-75
2021/03/18 07:03:33;;;;;;;22.20;13.30;;;2.60;99.90;;;;;;10323674;28;20046;-75
2021/03/18 07:08:38;;;;;;;23.23;14.30;;;2.60;99.90;;;;;;10324501;28;20064;-75
2021/03/18 07:13:43;;;;;;;25.00;16.63;;;2.60;99.90;;;;;;10308957;28;20051;-75
2021/03/18 07:18:58;;;;;;;24.75;15.95;;;2.60;99.90;;;;;;10282739;28;20057;-75
2021/03/18 07:24:01;;;;;;;24.40;16.73;;;2.80;99.90;;;;;;10311904;28;20741;-75
2021/03/18 07:29:19;;;;;;;26.60;16.35;;;2.80;99.90;;;;;;10320741;28;20513;-75
2021/03/18 07:34:21;;;;;;;27.42;19.30;;;3.00;99.90;;;;;;10321966;28;20049;-75
2021/03/18 07:39:40;;;;;;;29.33;19.80;;;3.30;99.90;;;;;;10337079;28;20062;-75
2021/03/18 07:44:43;;;;;;;37.22;20.92;;;3.70;99.90;;;;;;10328999;28;20065;-75
2021/03/18 07:49:46;;;;;;;35.53;22.38;;;4.10;99.90;;;;;;10330248;28;20054;-75
2021/03/18 07:54:50;;;;;;;27.88;18.02;;;4.10;99.90;;;;;;10329234;28;20510;-75
2021/03/18 07:59:51;;;;;;;23.83;16.60;;;4.30;99.90;;;;;;10329372;28;20105;-75
2021/03/18 08:04:54;;;;;;;23.15;14.88;;;4.80;99.90;;;;;;10329418;28;20062;-75
2021/03/18 08:10:05;;;;;;;21.85;15.27;;;5.50;99.90;;;;;;10327708;28;20057;-75
2021/03/18 08:15:38;;;;;;;23.08;14.88;;;5.60;99.90;;;;;;10309623;28;20638;-75
2021/03/18 08:20:40;;;;;;;22.00;15.60;;;5.70;99.90;;;;;;10328049;28;20507;-75
2021/03/18 08:25:41;;;;;;;25.67;16.10;;;5.50;99.90;;;;;;10314139;28;20476;-75
2021/03/18 08:30:43;;;;;;;28.77;19.80;;;5.00;99.90;;;;;;10328484;28;20058;-75
2021/03/18 08:35:44;;;;;;;31.05;21.48;;;5.00;99.90;;;;;;10326786;28;20081;-75
2021/03/18 08:41:00;;;;;;;26.80;18.38;;;4.90;99.90;;;;;;10328077;28;20058;-75
2021/03/18 08:46:01;;;;;;;26.90;19.05;;;4.70;99.90;;;;;;10326681;28;20406;-75
2021/03/18 08:51:05;;;;;;;29.13;20.10;;;4.50;99.90;;;;;;10327684;28;20057;-75
2021/03/18 08:56:07;;;;;;;27.50;18.55;;;4.70;99.90;;;;;;10300809;28;20380;-75
2021/03/18 09:01:15;;;;;;;30.13;19.60;;;4.80;99.90;;;;;;10323859;28;20058;-75
2021/03/18 09:06:19;;;;;;;25.75;17.33;;;5.00;99.90;;;;;;10327653;28;20046;-75
2021/03/18 09:11:22;;;;;;;30.88;20.52;;;5.50;99.90;;;;;;10302588;28;20113;-75
2021/03/18 09:16:25;;;;;;;26.52;18.42;;;6.30;99.90;;;;;;10324416;28;20479;-75
2021/03/18 09:21:36;;;;;;;41.08;21.73;;;7.00;99.90;;;;;;10327429;28;20086;-76
2021/03/18 09:26:41;;;;;;;30.70;19.30;;;7.10;99.90;;;;;;10327352;28;20109;-75
2021/03/18 09:31:42;;;;;;;26.35;17.75;;;7.50;99.90;;;;;;10327309;28;20054;-76
2021/03/18 09:36:44;;;;;;;24.92;17.90;;;7.60;99.90;;;;;;10326579;28;20510;-75
2021/03/18 09:41:48;;;;;;;35.08;22.65;;;7.30;99.90;;;;;;10325174;28;20047;-75
2021/03/18 09:46:58;;;;;;;28.73;19.15;;;7.00;99.90;;;;;;10325332;28;20038;-75
2021/03/18 09:52:03;;;;;;;35.70;23.55;;;6.90;99.90;;;;;;10324593;28;20418;-75
2021/03/18 09:57:10;;;;;;;40.88;28.60;;;6.40;99.90;;;;;;10322513;28;20058;-66
2021/03/18 10:02:17;;;;;;;45.33;30.88;;;6.20;99.90;;;;;;10323709;28;20053;-66
2021/03/18 10:07:26;;;;;;;50.80;33.15;;;6.30;99.90;;;;;;10322257;28;20093;-66
2021/03/18 10:12:29;;;;;;;47.78;31.75;;;6.70;99.90;;;;;;10323972;28;20053;-66
2021/03/18 10:17:35;;;;;;;47.28;32.58;;;6.90;99.90;;;;;;10317088;28;20561;-66
2021/03/18 10:22:50;;;;;;;50.20;35.30;;;7.40;99.90;;;;;;10318506;28;20076;-66
2021/03/18 10:28:03;;;;;;;45.73;31.23;;;7.40;99.90;;;;;;10322214;28;20085;-66
2021/03/18 10:33:18;;;;;;;50.10;33.28;;;7.30;99.90;;;;;;10323001;28;20054;-66
2021/03/18 10:38:31;;;;;;;51.53;32.47;;;7.30;99.90;;;;;;10322879;28;20133;-66
2021/03/18 10:43:37;;;;;;;48.30;32.53;;;7.80;99.90;;;;;;10323278;28;20050;-66
2021/03/18 10:48:39;;;;;;;48.55;30.83;;;8.30;99.90;;;;;;10322650;28;20046;-66
2021/03/18 10:53:44;;;;;;;44.45;28.55;;;8.30;99.90;;;;;;10322514;28;20133;-66
2021/03/18 10:58:46;;;;;;;46.67;31.48;;;8.50;99.90;;;;;;10322860;28;20042;-66
2021/03/18 11:03:49;;;;;;;46.92;29.58;;;8.30;99.90;;;;;;10325081;28;101543;-66
2021/03/18 11:08:53;;;;;;;41.88;27.90;;;8.50;99.90;;;;;;10328610;28;20153;-66
2021/03/18 11:14:13;;;;;;;38.92;26.52;;;8.40;99.90;;;;;;10349891;28;20489;-66
2021/03/18 11:19:20;;;;;;;38.10;24.88;;;8.30;99.90;;;;;;10345830;28;20038;-66
2021/03/18 11:24:22;;;;;;;39.67;25.80;;;8.40;99.10;;;;;;10362519;28;20068;-66
2021/03/18 11:29:29;;;;;;;38.45;25.15;;;8.40;99.50;;;;;;10362312;28;20057;-66
2021/03/18 11:34:34;;;;;;;34.78;22.63;;;7.80;99.90;;;;;;10355333;28;20104;-66
2021/03/18 11:39:36;;;;;;;33.80;23.60;;;7.70;99.50;;;;;;10359151;28;20042;-66
2021/03/18 11:44:38;;;;;;;37.30;25.40;;;7.80;99.40;;;;;;10357840;28;20957;-66
2021/03/18 11:49:41;;;;;;;32.83;20.63;;;7.70;99.90;;;;;;10358299;28;20050;-66
2021/03/18 11:54:43;;;;;;;30.55;19.88;;;7.80;98.40;;;;;;10360268;28;20054;-66
2021/03/18 11:59:45;;;;;;;34.85;21.13;;;7.90;99.90;;;;;;10362800;28;20514;-66
2021/03/18 12:04:46;;;;;;;33.00;21.88;;;8.10;97.60;;;;;;10362238;28;20069;-66
2021/03/18 12:09:49;;;;;;;33.50;21.65;;;8.20;98.30;;;;;;10362265;28;20050;-66
2021/03/18 12:14:50;;;;;;;31.58;19.63;;;8.00;97.70;;;;;;10361365;28;20053;-66
2021/03/18 12:19:52;;;;;;;28.88;18.67;;;8.20;97.00;;;;;;10362150;28;20068;-66
2021/03/18 12:24:54;;;;;;;28.02;18.10;;;8.10;95.20;;;;;;10367086;28;20061;-66
2021/03/18 12:29:55;;;;;;;29.83;19.77;;;8.10;94.80;;;;;;10368743;28;20403;-66
2021/03/18 12:34:57;;;;;;;27.98;17.65;;;8.10;95.40;;;;;;10366381;28;20111;-66
2021/03/18 12:39:59;;;;;;;26.58;18.20;;;8.50;94.70;;;;;;10367017;28;20042;-66
2021/03/18 12:45:01;;;;;;;25.10;15.82;;;8.50;92.40;;;;;;10364526;28;20045;-66
2021/03/18 12:50:05;;;;;;;30.70;18.20;;;8.50;91.20;;;;;;10366922;28;20050;-66
2021/03/18 12:55:08;;;;;;;25.42;16.80;;;8.50;91.90;;;;;;10382163;28;20046;-66
2021/03/18 13:00:27;;;;;;;27.90;17.85;;;8.40;87.80;;;;;;10364268;28;20441;-66
2021/03/18 13:05:29;;;;;;;26.00;16.20;;;8.80;88.80;;;;;;10366014;28;20042;-67
2021/03/18 13:10:31;;;;;;;26.00;17.35;;;8.80;85.00;;;;;;10368302;28;20042;-66
2021/03/18 13:15:33;;;;;;;27.88;17.60;;;8.60;85.00;;;;;;10366305;28;20538;-66
2021/03/18 13:20:34;;;;;;;27.42;17.50;;;8.30;82.50;;;;;;10357841;28;20302;-66
2021/03/18 13:30:20;;;;;;;26.63;16.65;;;7.10;84.00;;;;;;10521358;27;20743;-67
2021/03/18 13:35:24;;;;;;;23.13;15.13;;;7.30;85.20;;;;;;10467915;28;20390;-68
2021/03/18 13:40:30;;;;;;;23.40;14.95;;;7.50;84.30;;;;;;10470237;28;20044;-67
2021/03/18 13:45:39;;;;;;;23.17;15.05;;;7.70;82.00;;;;;;10478388;28;20560;-68
2021/03/18 13:50:51;;;;;;;20.20;12.98;;;7.80;79.30;;;;;;10480526;28;20045;-67
2021/03/18 13:55:54;;;;;;;18.63;13.23;;;7.60;77.40;;;;;;10477411;28;20122;-67
2021/03/18 14:01:00;;;;;;;21.17;12.95;;;7.60;77.60;;;;;;10453507;28;20057;-67
2021/03/18 14:06:03;;;;;;;21.13;13.88;;;7.50;77.90;;;;;;10456646;28;20044;-67
2021/03/18 14:11:04;;;;;;;21.52;12.50;;;7.60;76.30;;;;;;10440397;28;20095;-67
2021/03/18 14:16:07;;;;;;;19.00;13.18;;;7.70;74.50;;;;;;10471624;28;20060;-67
2021/03/18 14:21:09;;;;;;;18.48;12.32;;;7.90;75.20;;;;;;10480086;28;20444;-67
2021/03/18 14:26:11;;;;;;;20.15;13.32;;;8.10;72.40;;;;;;10480289;28;20100;-67
2021/03/18 14:31:13;;;;;;;19.20;12.18;;;8.20;70.60;;;;;;10479302;28;20120;-67
2021/03/18 14:36:14;;;;;;;16.95;11.77;;;8.50;70.10;;;;;;10479426;28;20052;-68
2021/03/18 14:41:16;;;;;;;17.48;10.60;;;8.70;67.20;;;;;;10454238;28;20049;-68
2021/03/18 14:46:18;;;;;;;18.85;11.80;;;9.10;63.00;;;;;;10450484;28;20301;-67
2021/03/18 14:51:20;;;;;;;19.15;11.32;;;9.00;63.30;;;;;;10450613;28;20052;-67
2021/03/18 14:56:22;;;;;;;18.40;11.52;;;9.50;63.10;;;;;;10451690;28;20052;-67
2021/03/18 15:01:44;;;;;;;17.67;11.18;;;9.50;59.90;;;;;;10451974;28;20132;-68
2021/03/18 15:06:46;;;;;;;19.20;11.73;;;9.20;61.20;;;;;;10451726;28;20056;-67
2021/03/18 15:11:48;;;;;;;17.40;10.68;;;8.60;62.00;;;;;;10450571;28;20045;-67
2021/03/18 15:16:49;;;;;;;17.15;11.35;;;8.20;63.50;;;;;;10451043;28;20532;-67
2021/03/18 15:21:52;;;;;;;16.52;10.65;;;8.10;65.00;;;;;;10449786;28;20045;-67
2021/03/18 15:26:55;;;;;;;20.08;12.13;;;8.10;64.90;;;;;;10449531;28;20060;-68
2021/03/18 15:31:59;;;;;;;19.77;12.48;;;7.90;66.20;;;;;;10450512;28;20057;-67
2021/03/18 15:37:20;;;;;;;17.65;12.13;;;7.50;68.80;;;;;;10450304;28;20037;-67
2021/03/18 15:42:22;;;;;;;20.42;13.00;;;7.20;72.00;;;;;;10449098;28;20072;-68
2021/03/18 15:47:26;;;;;;;21.48;13.57;;;6.80;77.90;;;;;;10445772;28;20060;-67
2021/03/18 15:52:27;;;;;;;21.92;13.75;;;6.50;82.40;;;;;;10419573;28;20049;-67
2021/03/18 15:57:30;;;;;;;17.90;11.90;;;6.50;84.10;;;;;;10406397;28;20049;-67
2021/03/18 16:02:33;;;;;;;18.58;11.63;;;6.60;85.50;;;;;;10408229;28;20076;-67
2021/03/18 16:07:58;;;;;;;16.73;11.55;;;6.70;85.50;;;;;;10407705;28;20489;-67
2021/03/18 16:13:00;;;;;;;17.98;12.30;;;6.80;85.80;;;;;;10414643;28;20452;-67
2021/03/18 16:18:07;;;;;;;19.73;11.77;;;7.00;85.60;;;;;;10448574;28;20049;-67
2021/03/18 16:23:14;;;;;;;18.60;11.98;;;7.00;85.30;;;;;;10448104;28;20041;-67
2021/03/18 16:28:20;;;;;;;19.50;12.15;;;6.90;84.10;;;;;;10447632;28;20064;-67
2021/03/18 16:33:22;;;;;;;20.92;11.80;;;6.70;86.80;;;;;;10448158;28;20053;-67
2021/03/18 16:38:25;;;;;;;17.15;10.60;;;6.70;86.40;;;;;;10447164;28;20044;-67
2021/03/18 16:43:38;;;;;;;18.80;10.82;;;6.50;87.60;;;;;;10445786;28;20045;-67
2021/03/18 16:48:41;;;;;;;19.75;11.70;;;6.60;88.90;;;;;;10446509;28;20053;-67
2021/03/18 16:53:43;;;;;;;18.90;10.35;;;6.60;87.60;;;;;;10445505;28;20455;-67
2021/03/18 16:58:44;;;;;;;17.95;10.35;;;6.60;87.60;;;;;;10446325;28;20053;-67
2021/03/18 17:03:45;;;;;;;17.20;10.43;;;6.50;89.90;;;;;;10446315;28;20049;-67
2021/03/18 17:08:47;;;;;;;19.45;10.05;;;6.50;90.20;;;;;;10445781;28;20049;-67
2021/03/18 17:13:49;;;;;;;17.38;9.23;;;6.50;90.30;;;;;;10444948;28;20053;-67
2021/03/18 17:18:50;;;;;;;16.70;9.45;;;6.40;90.40;;;;;;10445916;28;20071;-67
2021/03/18 17:23:53;;;;;;;13.35;9.02;;;6.40;91.60;;;;;;10445188;28;20045;-67
2021/03/18 17:28:54;;;;;;;10.98;6.85;;;6.30;91.70;;;;;;10445593;28;20053;-67
2021/03/18 17:33:59;;;;;;;13.68;6.65;;;6.00;90.70;;;;;;10445794;28;20060;-67
2021/03/18 17:39:03;;;;;;;12.27;6.55;;;5.90;91.30;;;;;;10445395;28;20044;-67
2021/03/18 17:44:05;;;;;;;12.57;5.60;;;5.90;91.50;;;;;;10445514;28;20642;-67
2021/03/18 17:49:06;;;;;;;11.35;5.78;;;5.80;92.10;;;;;;10441201;28;20482;-65
2021/03/18 17:54:08;;;;;;;11.15;4.72;;;5.80;93.10;;;;;;10407702;28;20512;-67
2021/03/18 17:59:09;;;;;;;10.27;5.20;;;5.70;92.30;;;;;;10402784;28;20053;-67
2021/03/18 18:04:11;;;;;;;14.88;5.43;;;5.60;93.40;;;;;;10403535;28;20456;-74
2021/03/18 18:09:12;;;;;;;11.93;5.78;;;5.60;94.10;;;;;;10400055;28;20049;-74
2021/03/18 18:14:14;;;;;;;12.68;6.55;;;5.40;95.60;;;;;;10392499;28;20763;-74
2021/03/18 18:19:18;;;;;;;24.45;14.43;;;5.40;96.30;;;;;;10383293;28;20053;-74
2021/03/18 18:24:20;;;;;;;10.82;5.68;;;5.50;96.80;;;;;;10397084;28;20128;-74
2021/03/18 18:29:22;;;;;;;11.93;6.30;;;5.30;96.50;;;;;;10376446;28;20401;-73
2021/03/18 18:34:23;;;;;;;14.20;5.90;;;5.30;97.60;;;;;;10403205;28;20045;-74
2021/03/18 18:39:25;;;;;;;10.50;5.82;;;5.30;98.60;;;;;;10370682;28;20313;-74
2021/03/18 18:44:27;;;;;;;9.27;6.22;;;5.40;98.40;;;;;;10374891;28;20034;-75
2021/03/18 18:49:42;;;;;;;14.02;7.90;;;5.30;99.50;;;;;;10408545;28;20501;-75
2021/03/18 18:54:44;;;;;;;15.57;8.23;;;5.30;99.90;;;;;;10379223;28;20050;-74
2021/03/18 18:59:46;;;;;;;14.68;9.00;;;5.30;99.90;;;;;;10397565;28;20049;-74
2021/03/18 19:04:48;;;;;;;15.27;10.35;;;5.30;99.90;;;;;;10396826;28;20080;-75
2021/03/18 19:09:49;;;;;;;18.35;11.52;;;5.20;99.90;;;;;;10401933;28;20061;-74
2021/03/18 19:14:51;;;;;;;12.15;8.75;;;5.20;99.90;;;;;;10382092;28;20042;-74
2021/03/18 19:19:53;;;;;;;17.58;11.57;;;5.20;99.90;;;;;;10373962;28;20049;-74
2021/03/18 19:24:54;;;;;;;14.95;10.23;;;5.30;99.90;;;;;;10367489;28;20050;-74
2021/03/18 19:29:56;;;;;;;16.65;10.70;;;5.20;99.90;;;;;;10375131;28;20139;-74
2021/03/18 19:34:57;;;;;;;16.35;11.10;;;5.10;99.90;;;;;;10403124;28;20103;-75
2021/03/18 19:39:59;;;;;;;14.05;9.48;;;5.20;99.90;;;;;;10404642;28;20053;-74
2021/03/18 19:45:03;;;;;;;14.77;8.85;;;5.10;99.90;;;;;;10397264;28;20049;-75
2021/03/18 19:50:08;;;;;;;20.50;11.18;;;5.10;99.90;;;;;;10387483;28;20144;-75
2021/03/18 19:55:10;;;;;;;16.98;9.02;;;5.10;99.90;;;;;;10363681;28;20049;-74
2021/03/18 20:00:15;;;;;;;12.55;9.05;;;5.10;99.90;;;;;;10404734;28;20088;-74
2021/03/18 20:05:18;;;;;;;15.27;9.32;;;5.20;99.90;;;;;;10381182;28;20524;-74
2021/03/18 20:10:23;;;;;;;15.43;9.77;;;5.20;99.90;;;;;;10405086;28;20079;-75
2021/03/18 20:15:25;;;;;;;14.43;9.35;;;5.30;99.90;;;;;;10379162;28;20493;-75
2021/03/18 20:20:31;;;;;;;20.45;12.00;;;5.30;99.90;;;;;;10365768;28;20532;-74
2021/03/18 20:25:34;;;;;;;16.27;12.32;;;5.10;99.90;;;;;;10371524;28;20050;-75
2021/03/18 20:30:42;;;;;;;19.15;12.65;;;4.90;99.90;;;;;;10374803;28;20493;-75
2021/03/18 20:35:44;;;;;;;21.15;13.80;;;4.90;99.90;;;;;;10363653;28;20053;-75
2021/03/18 20:40:47;;;;;;;18.80;13.50;;;4.90;99.90;;;;;;10381164;28;20057;-75
2021/03/18 20:45:48;;;;;;;18.70;12.93;;;4.80;99.90;;;;;;10373162;28;20046;-75
2021/03/18 20:50:50;;;;;;;17.83;13.25;;;4.70;99.90;;;;;;10378864;28;20053;-75
2021/03/18 20:55:51;;;;;;;19.25;12.90;;;4.70;99.90;;;;;;10403158;28;20099;-75
2021/03/18 21:00:53;;;;;;;26.65;19.10;;;4.80;99.90;;;;;;10377577;28;20046;-75
2021/03/18 21:05:55;;;;;;;19.65;14.45;;;4.90;99.90;;;;;;10376031;28;20115;-75
2021/03/18 21:10:57;;;;;;;24.73;14.57;;;4.90;99.90;;;;;;10384959;28;20461;-74
2021/03/18 21:15:59;;;;;;;20.88;13.55;;;4.90;99.90;;;;;;10393008;28;20056;-75
2021/03/18 21:21:00;;;;;;;28.25;15.43;;;5.00;99.90;;;;;;10388645;28;20052;-75
2021/03/18 21:26:02;;;;;;;18.45;13.52;;;4.90;99.90;;;;;;10396729;28;20444;-75
2021/03/18 21:31:04;;;;;;;24.52;15.13;;;4.90;99.90;;;;;;10383986;28;20044;-75
2021/03/18 21:36:07;;;;;;;22.83;14.93;;;5.00;99.90;;;;;;10362974;28;20053;-75
2021/03/18 21:41:08;;;;;;;21.73;14.68;;;4.90;99.90;;;;;;10386244;28;20057;-74
2021/03/18 21:46:10;;;;;;;27.95;18.55;;;4.80;99.90;;;;;;10402019;28;20045;-75
2021/03/18 21:51:12;;;;;;;26.45;17.33;;;4.70;99.90;;;;;;10370308;28;20081;-75
2021/03/18 21:56:18;;;;;;;24.35;15.75;;;4.70;99.90;;;;;;10407671;28;20072;-75
2021/03/18 22:01:19;;;;;;;26.85;16.58;;;4.70;99.90;;;;;;10407050;28;20083;-73
2021/03/18 22:06:21;;;;;;;23.92;16.20;;;4.60;99.90;;;;;;10407840;28;20069;-73
2021/03/18 22:11:26;;;;;;;22.70;17.17;;;4.70;99.90;;;;;;10403352;28;20079;-73
2021/03/18 22:16:28;;;;;;;31.90;18.38;;;4.80;99.90;;;;;;10375904;28;20569;-73
2021/03/18 22:21:30;;;;;;;29.52;18.20;;;4.70;99.90;;;;;;10388084;28;20490;-73
2021/03/18 22:26:31;;;;;;;26.85;16.45;;;4.40;99.90;;;;;;10396277;28;20104;-73
2021/03/18 22:31:34;;;;;;;25.42;16.42;;;4.00;99.90;;;;;;10383452;28;20054;-73
2021/03/18 22:36:36;;;;;;;28.95;17.95;;;3.90;99.90;;;;;;10393534;28;20136;-73
2021/03/18 22:41:38;;;;;;;24.40;17.80;;;3.70;99.90;;;;;;10408138;28;20099;-73
2021/03/18 22:46:39;;;;;;;34.83;21.92;;;3.50;99.90;;;;;;10384480;28;20090;-74
2021/03/18 22:51:52;;;;;;;35.70;21.75;;;3.50;99.90;;;;;;10383369;28;20132;-74
2021/03/18 22:56:53;;;;;;;32.92;20.50;;;3.50;99.90;;;;;;10401757;28;20468;-73
2021/03/18 23:01:56;;;;;;;28.92;18.77;;;3.50;99.90;;;;;;10400949;28;20429;-73
2021/03/18 23:06:58;;;;;;;27.95;18.50;;;3.40;99.90;;;;;;10396403;28;20053;-73
2021/03/18 23:12:00;;;;;;;32.75;19.58;;;3.40;99.90;;;;;;10397064;28;20354;-73
2021/03/18 23:17:10;;;;;;;26.73;18.27;;;3.30;99.90;;;;;;10404651;28;20053;-73
2021/03/18 23:22:19;;;;;;;28.00;19.42;;;3.20;99.90;;;;;;10390799;28;20433;-73
2021/03/18 23:27:22;;;;;;;25.58;18.05;;;3.30;99.90;;;;;;10405307;28;20144;-73
2021/03/18 23:32:24;;;;;;;35.15;21.33;;;3.30;99.90;;;;;;10403899;28;20042;-73
2021/03/18 23:37:26;;;;;;;44.28;23.35;;;3.30;99.90;;;;;;10369057;28;20077;-73
2021/03/18 23:42:28;;;;;;;30.88;21.00;;;3.40;99.90;;;;;;10367986;28;20046;-73
2021/03/18 23:47:29;;;;;;;34.30;22.20;;;3.30;99.90;;;;;;10375016;28;20137;-73
2021/03/18 23:52:38;;;;;;;29.98;19.67;;;3.20;99.90;;;;;;10385488;28;20126;-73
2021/03/18 23:57:40;;;;;;;27.60;18.60;;;3.00;99.90;;;;;;10405784;28;20132;-73
